sensor_id;sensor_type;location;lat;lon;timestamp;pressure;altitude;pressure_sealevel;temperature
76583;BMP280;65462;52.148;7.940;2023-07-31T00:00:59;100197.13;;;17.58
76583;BMP280;65462;52.148;7.940;2023-07-31T00:03:24;100192.94;;;17.57
76583;BMP280;65462;52.148;7.940;2023-07-31T00:05:49;100193.31;;;17.55
76583;BMP280;65462;52.148;7.940;2023-07-31T00:08:14;100184.91;;;17.50
76583;BMP280;65462;52.148;7.940;2023-07-31T00:10:40;100182.97;;;17.46
76583;BMP280;65462;52.148;7.940;2023-07-31T00:13:05;100173.78;;;17.37
76583;BMP280;65462;52.148;7.940;2023-07-31T00:15:30;100179.94;;;17.41
76583;BMP280;65462;52.148;7.940;2023-07-31T00:17:55;100171.91;;;17.37
76583;BMP280;65462;52.148;7.940;2023-07-31T00:20:21;100171.13;;;17.33
76583;BMP280;65462;52.148;7.940;2023-07-31T00:22:46;100164.22;;;17.32
76583;BMP280;65462;52.148;7.940;2023-07-31T00:25:11;100157.34;;;17.31
76583;BMP280;65462;52.148;7.940;2023-07-31T00:27:37;100156.63;;;17.31
76583;BMP280;65462;52.148;7.940;2023-07-31T00:30:05;100157.00;;;17.29
76583;BMP280;65462;52.148;7.940;2023-07-31T00:32:31;100154.31;;;17.29
76583;BMP280;65462;52.148;7.940;2023-07-31T00:34:56;100151.25;;;17.27
76583;BMP280;65462;52.148;7.940;2023-07-31T00:37:21;100157.75;;;17.26
76583;BMP280;65462;52.148;7.940;2023-07-31T00:39:47;100152.03;;;17.24
76583;BMP280;65462;52.148;7.940;2023-07-31T00:42:12;100144.00;;;17.24
76583;BMP280;65462;52.148;7.940;2023-07-31T00:44:37;100149.72;;;17.23
76583;BMP280;65462;52.148;7.940;2023-07-31T00:47:03;100139.03;;;17.23
76583;BMP280;65462;52.148;7.940;2023-07-31T00:49:28;100138.66;;;17.21
76583;BMP280;65462;52.148;7.940;2023-07-31T00:51:54;100140.19;;;17.18
76583;BMP280;65462;52.148;7.940;2023-07-31T00:54:19;100128.34;;;17.16
76583;BMP280;65462;52.148;7.940;2023-07-31T00:56:45;100137.50;;;17.15
76583;BMP280;65462;52.148;7.940;2023-07-31T00:59:11;100139.75;;;17.13
76583;BMP280;65462;52.148;7.940;2023-07-31T01:01:37;100140.53;;;17.13
76583;BMP280;65462;52.148;7.940;2023-07-31T01:04:03;100134.81;;;17.11
76583;BMP280;65462;52.148;7.940;2023-07-31T01:06:40;100135.91;;;17.07
76583;BMP280;65462;52.148;7.940;2023-07-31T01:09:13;100130.56;;;17.03
76583;BMP280;65462;52.148;7.940;2023-07-31T01:11:52;100131.34;;;17.00
76583;BMP280;65462;52.148;7.940;2023-07-31T01:14:17;100123.72;;;16.99
76583;BMP280;65462;52.148;7.940;2023-07-31T01:16:43;100126.38;;;16.99
76583;BMP280;65462;52.148;7.940;2023-07-31T01:19:10;100125.59;;;16.98
76583;BMP280;65462;52.148;7.940;2023-07-31T01:24:28;100115.31;;;17.00
76583;BMP280;65462;52.148;7.940;2023-07-31T01:29:49;100113.78;;;16.99
76583;BMP280;65462;52.148;7.940;2023-07-31T01:32:17;100104.63;;;17.00
76583;BMP280;65462;52.148;7.940;2023-07-31T01:34:44;100100.81;;;16.98
76583;BMP280;65462;52.148;7.940;2023-07-31T01:37:09;100103.88;;;17.00
76583;BMP280;65462;52.148;7.940;2023-07-31T01:39:34;100096.25;;;16.98
76583;BMP280;65462;52.148;7.940;2023-07-31T01:41:59;100093.94;;;16.97
76583;BMP280;65462;52.148;7.940;2023-07-31T01:44:25;100082.50;;;16.96
76583;BMP280;65462;52.148;7.940;2023-07-31T01:46:50;100080.94;;;16.88
76583;BMP280;65462;52.148;7.940;2023-07-31T01:49:15;100087.06;;;16.92
76583;BMP280;65462;52.148;7.940;2023-07-31T01:51:41;100085.91;;;16.90
76583;BMP280;65462;52.148;7.940;2023-07-31T01:54:06;100080.94;;;16.88
76583;BMP280;65462;52.148;7.940;2023-07-31T01:56:31;100077.91;;;16.86
76583;BMP280;65462;52.148;7.940;2023-07-31T01:58:56;100075.59;;;16.85
76583;BMP280;65462;52.148;7.940;2023-07-31T02:01:22;100074.84;;;16.84
76583;BMP280;65462;52.148;7.940;2023-07-31T02:03:47;100074.06;;;16.84
76583;BMP280;65462;52.148;7.940;2023-07-31T02:06:12;100067.94;;;16.83
76583;BMP280;65462;52.148;7.940;2023-07-31T02:08:37;100068.72;;;16.84
76583;BMP280;65462;52.148;7.940;2023-07-31T02:11:03;100064.53;;;16.83
76583;BMP280;65462;52.148;7.940;2023-07-31T02:13:28;100077.13;;;16.82
76583;BMP280;65462;52.148;7.940;2023-07-31T02:15:54;100067.22;;;16.79
76583;BMP280;65462;52.148;7.940;2023-07-31T02:18:19;100063.75;;;16.79
76583;BMP280;65462;52.148;7.940;2023-07-31T02:20:52;100069.09;;;16.79
76583;BMP280;65462;52.148;7.940;2023-07-31T02:23:18;100059.56;;;16.78
76583;BMP280;65462;52.148;7.940;2023-07-31T02:25:44;100059.97;;;16.76
76583;BMP280;65462;52.148;7.940;2023-07-31T02:28:10;100056.88;;;16.74
76583;BMP280;65462;52.148;7.940;2023-07-31T02:30:35;100054.59;;;16.73
76583;BMP280;65462;52.148;7.940;2023-07-31T02:33:00;100048.47;;;16.72
76583;BMP280;65462;52.148;7.940;2023-07-31T02:35:25;100053.47;;;16.70
76583;BMP280;65462;52.148;7.940;2023-07-31T02:37:51;100049.25;;;16.69
76583;BMP280;65462;52.148;7.940;2023-07-31T02:40:16;100045.03;;;16.68
76583;BMP280;65462;52.148;7.940;2023-07-31T02:42:41;100052.69;;;16.66
76583;BMP280;65462;52.148;7.940;2023-07-31T02:45:07;100031.34;;;16.66
76583;BMP280;65462;52.148;7.940;2023-07-31T02:47:33;100032.06;;;16.63
76583;BMP280;65462;52.148;7.940;2023-07-31T02:49:58;100030.53;;;16.62
76583;BMP280;65462;52.148;7.940;2023-07-31T02:52:24;100029.75;;;16.62
76583;BMP280;65462;52.148;7.940;2023-07-31T02:54:50;100031.28;;;16.59
76583;BMP280;65462;52.148;7.940;2023-07-31T02:57:15;100022.53;;;16.58
76583;BMP280;65462;52.148;7.940;2023-07-31T02:59:41;100029.75;;;16.58
76583;BMP280;65462;52.148;7.940;2023-07-31T03:02:06;100026.31;;;16.57
76583;BMP280;65462;52.148;7.940;2023-07-31T03:04:32;100022.50;;;16.55
76583;BMP280;65462;52.148;7.940;2023-07-31T03:06:57;100023.66;;;16.54
76583;BMP280;65462;52.148;7.940;2023-07-31T03:09:22;100031.28;;;16.55
76583;BMP280;65462;52.148;7.940;2023-07-31T03:11:47;100018.69;;;16.52
76583;BMP280;65462;52.148;7.940;2023-07-31T03:14:13;100019.06;;;16.51
76583;BMP280;65462;52.148;7.940;2023-07-31T03:16:38;100011.06;;;16.51
76583;BMP280;65462;52.148;7.940;2023-07-31T03:19:03;100010.31;;;16.50
76583;BMP280;65462;52.148;7.940;2023-07-31T03:21:28;100008.38;;;16.47
76583;BMP280;65462;52.148;7.940;2023-07-31T03:23:54;100005.72;;;16.47
76583;BMP280;65462;52.148;7.940;2023-07-31T03:26:19;100015.25;;;16.48
76583;BMP280;65462;52.148;7.940;2023-07-31T03:28:44;100006.47;;;16.48
76583;BMP280;65462;52.148;7.940;2023-07-31T03:31:09;100004.94;;;16.47
76583;BMP280;65462;52.148;7.940;2023-07-31T03:33:36;100004.56;;;16.48
76583;BMP280;65462;52.148;7.940;2023-07-31T03:36:01;99993.13;;;16.48
76583;BMP280;65462;52.148;7.940;2023-07-31T03:38:27;99990.88;;;16.50
76583;BMP280;65462;52.148;7.940;2023-07-31T03:40:52;99983.22;;;16.48
76583;BMP280;65462;52.148;7.940;2023-07-31T03:43:17;99989.34;;;16.49
76583;BMP280;65462;52.148;7.940;2023-07-31T03:45:42;99981.34;;;16.49
76583;BMP280;65462;52.148;7.940;2023-07-31T03:48:08;99974.47;;;16.51
76583;BMP280;65462;52.148;7.940;2023-07-31T03:50:33;99972.56;;;16.52
76583;BMP280;65462;52.148;7.940;2023-07-31T03:52:58;99968.00;;;16.52
76583;BMP280;65462;52.148;7.940;2023-07-31T03:55:24;99971.06;;;16.51
76583;BMP280;65462;52.148;7.940;2023-07-31T03:57:49;99959.25;;;16.55
76583;BMP280;65462;52.148;7.940;2023-07-31T04:00:14;99948.59;;;16.59
76583;BMP280;65462;52.148;7.940;2023-07-31T04:02:39;99957.38;;;16.60
76583;BMP280;65462;52.148;7.940;2023-07-31T04:05:04;99960.03;;;16.60
76583;BMP280;65462;52.148;7.940;2023-07-31T04:07:30;99955.81;;;16.62
76583;BMP280;65462;52.148;7.940;2023-07-31T04:09:55;99963.44;;;16.67
76583;BMP280;65462;52.148;7.940;2023-07-31T04:12:20;99957.75;;;16.69
76583;BMP280;65462;52.148;7.940;2023-07-31T04:14:45;99960.81;;;16.71
76583;BMP280;65462;52.148;7.940;2023-07-31T04:17:10;99956.25;;;16.71
76583;BMP280;65462;52.148;7.940;2023-07-31T04:19:35;99951.69;;;16.79
76583;BMP280;65462;52.148;7.940;2023-07-31T04:22:01;99955.88;;;16.76
76583;BMP280;65462;52.148;7.940;2023-07-31T04:24:26;99955.88;;;16.76
76583;BMP280;65462;52.148;7.940;2023-07-31T04:26:51;99957.00;;;16.79
76583;BMP280;65462;52.148;7.940;2023-07-31T04:29:17;99964.28;;;16.85
76583;BMP280;65462;52.148;7.940;2023-07-31T04:31:42;99963.91;;;16.87
76583;BMP280;65462;52.148;7.940;2023-07-31T04:34:07;99958.16;;;16.85
76583;BMP280;65462;52.148;7.940;2023-07-31T04:36:33;99973.41;;;16.81
76583;BMP280;65462;52.148;7.940;2023-07-31T04:38:58;99972.28;;;16.85
76583;BMP280;65462;52.148;7.940;2023-07-31T04:41:24;99967.69;;;16.82
76583;BMP280;65462;52.148;7.940;2023-07-31T04:43:49;99969.63;;;16.85
76583;BMP280;65462;52.148;7.940;2023-07-31T04:46:14;99967.31;;;16.87
76583;BMP280;65462;52.148;7.940;2023-07-31T04:48:39;99978.75;;;16.84
76583;BMP280;65462;52.148;7.940;2023-07-31T04:51:05;99977.22;;;16.83
76583;BMP280;65462;52.148;7.940;2023-07-31T04:53:30;99971.91;;;16.80
76583;BMP280;65462;52.148;7.940;2023-07-31T04:55:55;99967.66;;;16.72
76583;BMP280;65462;52.148;7.940;2023-07-31T04:58:20;99956.25;;;16.71
76583;BMP280;65462;52.148;7.940;2023-07-31T05:00:45;99958.13;;;16.71
76583;BMP280;65462;52.148;7.940;2023-07-31T05:03:11;99959.28;;;16.66
76583;BMP280;65462;52.148;7.940;2023-07-31T05:05:36;99965.00;;;16.61
76583;BMP280;65462;52.148;7.940;2023-07-31T05:08:01;99967.25;;;16.59
76583;BMP280;65462;52.148;7.940;2023-07-31T05:10:27;99965.38;;;16.60
76583;BMP280;65462;52.148;7.940;2023-07-31T05:12:52;99963.47;;;16.64
76583;BMP280;65462;52.148;7.940;2023-07-31T05:15:17;99969.19;;;16.66
76583;BMP280;65462;52.148;7.940;2023-07-31T05:17:42;99969.97;;;16.70
76583;BMP280;65462;52.148;7.940;2023-07-31T05:20:08;99977.97;;;16.73
76583;BMP280;65462;52.148;7.940;2023-07-31T05:22:34;99973.41;;;16.70
76583;BMP280;65462;52.148;7.940;2023-07-31T05:24:59;99975.69;;;16.75
76583;BMP280;65462;52.148;7.940;2023-07-31T05:27:24;99973.03;;;16.79
76583;BMP280;65462;52.148;7.940;2023-07-31T05:29:50;99982.94;;;16.78
76583;BMP280;65462;52.148;7.940;2023-07-31T05:32:15;99982.56;;;16.76
76583;BMP280;65462;52.148;7.940;2023-07-31T05:34:40;99961.59;;;16.78
76583;BMP280;65462;52.148;7.940;2023-07-31T05:37:05;99964.63;;;16.77
76583;BMP280;65462;52.148;7.940;2023-07-31T05:39:31;99976.81;;;16.78
76583;BMP280;65462;52.148;7.940;2023-07-31T05:41:56;99970.34;;;16.79
76583;BMP280;65462;52.148;7.940;2023-07-31T05:44:21;99970.34;;;16.75
76583;BMP280;65462;52.148;7.940;2023-07-31T05:46:46;99973.41;;;16.70
76583;BMP280;65462;52.148;7.940;2023-07-31T05:49:11;99968.06;;;16.70
76583;BMP280;65462;52.148;7.940;2023-07-31T05:51:36;99970.31;;;16.65
76583;BMP280;65462;52.148;7.940;2023-07-31T05:54:02;99967.66;;;16.61
76583;BMP280;65462;52.148;7.940;2023-07-31T05:56:27;99966.50;;;16.62
76583;BMP280;65462;52.148;7.940;2023-07-31T05:58:52;99962.69;;;16.63
76583;BMP280;65462;52.148;7.940;2023-07-31T06:01:17;99965.00;;;16.61
76583;BMP280;65462;52.148;7.940;2023-07-31T06:03:42;99975.66;;;16.61
76583;BMP280;65462;52.148;7.940;2023-07-31T06:06:08;99976.41;;;16.58
76583;BMP280;65462;52.148;7.940;2023-07-31T06:08:33;99976.03;;;16.56
76583;BMP280;65462;52.148;7.940;2023-07-31T06:10:58;99961.94;;;16.55
76583;BMP280;65462;52.148;7.940;2023-07-31T06:13:23;99956.59;;;16.55
76583;BMP280;65462;52.148;7.940;2023-07-31T06:15:48;99947.44;;;16.53
76583;BMP280;65462;52.148;7.940;2023-07-31T06:18:14;99954.31;;;16.54
76583;BMP280;65462;52.148;7.940;2023-07-31T06:20:39;99957.34;;;16.52
76583;BMP280;65462;52.148;7.940;2023-07-31T06:23:05;99943.25;;;16.55
76583;BMP280;65462;52.148;7.940;2023-07-31T06:25:38;99943.63;;;16.54
76583;BMP280;65462;52.148;7.940;2023-07-31T06:28:03;99940.59;;;16.55
76583;BMP280;65462;52.148;7.940;2023-07-31T06:30:28;99947.03;;;16.51
76583;BMP280;65462;52.148;7.940;2023-07-31T06:32:53;99945.53;;;16.53
76583;BMP280;65462;52.148;7.940;2023-07-31T06:35:18;99947.44;;;16.53
76583;BMP280;65462;52.148;7.940;2023-07-31T06:37:44;99941.31;;;16.52
76583;BMP280;65462;52.148;7.940;2023-07-31T06:40:09;99942.09;;;16.53
76583;BMP280;65462;52.148;7.940;2023-07-31T06:42:35;99940.97;;;16.54
76583;BMP280;65462;52.148;7.940;2023-07-31T06:45:00;99939.44;;;16.53
76583;BMP280;65462;52.148;7.940;2023-07-31T06:47:25;99937.91;;;16.55
76583;BMP280;65462;52.148;7.940;2023-07-31T06:49:51;99946.69;;;16.56
76583;BMP280;65462;52.148;7.940;2023-07-31T06:52:16;99937.16;;;16.58
76583;BMP280;65462;52.148;7.940;2023-07-31T06:54:41;99942.13;;;16.64
76583;BMP280;65462;52.148;7.940;2023-07-31T06:57:06;99942.88;;;16.64
76583;BMP280;65462;52.148;7.940;2023-07-31T06:59:32;99945.94;;;16.66
76583;BMP280;65462;52.148;7.940;2023-07-31T07:01:57;99939.47;;;16.71
76583;BMP280;65462;52.148;7.940;2023-07-31T07:04:22;99937.56;;;16.71
76583;BMP280;65462;52.148;7.940;2023-07-31T07:06:47;99932.22;;;16.71
76583;BMP280;65462;52.148;7.940;2023-07-31T07:09:12;99929.94;;;16.73
76583;BMP280;65462;52.148;7.940;2023-07-31T07:11:37;99929.56;;;16.75
76583;BMP280;65462;52.148;7.940;2023-07-31T07:14:03;99923.88;;;16.76
76583;BMP280;65462;52.148;7.940;2023-07-31T07:16:28;99926.88;;;16.78
76583;BMP280;65462;52.148;7.940;2023-07-31T07:18:54;99925.75;;;16.83
76583;BMP280;65462;52.148;7.940;2023-07-31T07:21:19;99929.56;;;16.82
76583;BMP280;65462;52.148;7.940;2023-07-31T07:23:44;99924.59;;;16.80
76583;BMP280;65462;52.148;7.940;2023-07-31T07:26:09;99920.44;;;16.79
76583;BMP280;65462;52.148;7.940;2023-07-31T07:28:35;99928.44;;;16.79
76583;BMP280;65462;52.148;7.940;2023-07-31T07:31:02;99926.91;;;16.85
76583;BMP280;65462;52.148;7.940;2023-07-31T07:33:27;99920.81;;;16.81
76583;BMP280;65462;52.148;7.940;2023-07-31T07:35:52;99919.28;;;16.80
76583;BMP280;65462;52.148;7.940;2023-07-31T07:38:17;99914.31;;;16.79
76583;BMP280;65462;52.148;7.940;2023-07-31T07:40:44;99916.59;;;16.80
76583;BMP280;65462;52.148;7.940;2023-07-31T07:43:09;99915.44;;;16.78
76583;BMP280;65462;52.148;7.940;2023-07-31T07:45:35;99908.59;;;16.77
76583;BMP280;65462;52.148;7.940;2023-07-31T07:48:00;99910.88;;;16.78
76583;BMP280;65462;52.148;7.940;2023-07-31T07:50:25;99900.22;;;16.78
76583;BMP280;65462;52.148;7.940;2023-07-31T07:52:50;99891.44;;;16.81
76583;BMP280;65462;52.148;7.940;2023-07-31T07:55:16;99903.63;;;16.82
76583;BMP280;65462;52.148;7.940;2023-07-31T07:57:41;99903.25;;;16.84
76583;BMP280;65462;52.148;7.940;2023-07-31T08:00:06;99891.09;;;16.86
76583;BMP280;65462;52.148;7.940;2023-07-31T08:02:32;99891.84;;;16.87
76583;BMP280;65462;52.148;7.940;2023-07-31T08:04:57;99887.63;;;16.93
76583;BMP280;65462;52.148;7.940;2023-07-31T08:07:22;99888.78;;;16.95
76583;BMP280;65462;52.148;7.940;2023-07-31T08:09:47;99880.00;;;16.98
76583;BMP280;65462;52.148;7.940;2023-07-31T08:12:12;99872.38;;;17.04
76583;BMP280;65462;52.148;7.940;2023-07-31T08:14:38;99868.19;;;17.10
76583;BMP280;65462;52.148;7.940;2023-07-31T08:17:03;99855.19;;;17.15
76583;BMP280;65462;52.148;7.940;2023-07-31T08:19:28;99862.44;;;17.18
76583;BMP280;65462;52.148;7.940;2023-07-31T08:21:54;99835.38;;;17.16
76583;BMP280;65462;52.148;7.940;2023-07-31T08:24:19;99837.66;;;17.25
76583;BMP280;65462;52.148;7.940;2023-07-31T08:26:45;99831.53;;;17.24
76583;BMP280;65462;52.148;7.940;2023-07-31T08:29:10;99838.78;;;17.27
76583;BMP280;65462;52.148;7.940;2023-07-31T08:31:35;99833.44;;;17.27
76583;BMP280;65462;52.148;7.940;2023-07-31T08:34:00;99832.28;;;17.28
76583;BMP280;65462;52.148;7.940;2023-07-31T08:36:26;99818.13;;;17.31
76583;BMP280;65462;52.148;7.940;2023-07-31T08:38:51;99819.31;;;17.30
76583;BMP280;65462;52.148;7.940;2023-07-31T08:41:16;99813.97;;;17.34
76583;BMP280;65462;52.148;7.940;2023-07-31T08:43:42;99806.31;;;17.36
76583;BMP280;65462;52.148;7.940;2023-07-31T08:46:08;99814.31;;;17.39
76583;BMP280;65462;52.148;7.940;2023-07-31T08:48:34;99814.66;;;17.41
76583;BMP280;65462;52.148;7.940;2023-07-31T08:51:00;99813.19;;;17.44
76583;BMP280;65462;52.148;7.940;2023-07-31T08:53:25;99799.03;;;17.47
76583;BMP280;65462;52.148;7.940;2023-07-31T08:55:52;99802.84;;;17.50
76583;BMP280;65462;52.148;7.940;2023-07-31T08:58:17;99805.84;;;17.52
76583;BMP280;65462;52.148;7.940;2023-07-31T09:00:43;99793.66;;;17.54
76583;BMP280;65462;52.148;7.940;2023-07-31T09:03:12;99797.47;;;17.57
76583;BMP280;65462;52.148;7.940;2023-07-31T09:05:38;99802.03;;;17.60
76583;BMP280;65462;52.148;7.940;2023-07-31T09:08:05;99799.34;;;17.63
76583;BMP280;65462;52.148;7.940;2023-07-31T09:10:30;99793.22;;;17.66
76583;BMP280;65462;52.148;7.940;2023-07-31T09:12:56;99793.56;;;17.72
76583;BMP280;65462;52.148;7.940;2023-07-31T09:15:21;99789.34;;;17.74
76583;BMP280;65462;52.148;7.940;2023-07-31T09:17:46;99795.47;;;17.75
76583;BMP280;65462;52.148;7.940;2023-07-31T09:20:15;99787.81;;;17.77
76583;BMP280;65462;52.148;7.940;2023-07-31T09:22:41;99800.03;;;17.78
76583;BMP280;65462;52.148;7.940;2023-07-31T09:30:13;99781.28;;;17.81
76583;BMP280;65462;52.148;7.940;2023-07-31T09:32:38;99783.19;;;17.81
76583;BMP280;65462;52.148;7.940;2023-07-31T09:35:19;99789.31;;;17.81
76583;BMP280;65462;52.148;7.940;2023-07-31T09:37:52;99787.78;;;17.80
76583;BMP280;65462;52.148;7.940;2023-07-31T09:40:30;99774.03;;;17.82
76583;BMP280;65462;52.148;7.940;2023-07-31T09:42:56;99778.63;;;17.81
76583;BMP280;65462;52.148;7.940;2023-07-31T09:45:22;99790.09;;;17.78
76583;BMP280;65462;52.148;7.940;2023-07-31T09:47:48;99782.84;;;17.79
76583;BMP280;65462;52.148;7.940;2023-07-31T09:50:13;99790.47;;;17.77
76583;BMP280;65462;52.148;7.940;2023-07-31T09:52:39;99791.63;;;17.76
76583;BMP280;65462;52.148;7.940;2023-07-31T09:55:04;99786.31;;;17.72
76583;BMP280;65462;52.148;7.940;2023-07-31T09:57:29;99781.75;;;17.69
76583;BMP280;65462;52.148;7.940;2023-07-31T09:59:55;99776.41;;;17.69
76583;BMP280;65462;52.148;7.940;2023-07-31T10:02:21;99791.28;;;17.70
76583;BMP280;65462;52.148;7.940;2023-07-31T10:04:47;99773.31;;;17.71
76583;BMP280;65462;52.148;7.940;2023-07-31T10:07:13;99771.41;;;17.71
76583;BMP280;65462;52.148;7.940;2023-07-31T10:09:39;99766.84;;;17.72
76583;BMP280;65462;52.148;7.940;2023-07-31T10:12:05;99771.81;;;17.73
76583;BMP280;65462;52.148;7.940;2023-07-31T10:14:34;99771.06;;;17.73
76583;BMP280;65462;52.148;7.940;2023-07-31T10:16:59;99767.59;;;17.79
76583;BMP280;65462;52.148;7.940;2023-07-31T10:19:26;99771.75;;;17.77
76583;BMP280;65462;52.148;7.940;2023-07-31T10:21:51;99759.97;;;17.74
76583;BMP280;65462;52.148;7.940;2023-07-31T10:24:17;99768.75;;;17.75
76583;BMP280;65462;52.148;7.940;2023-07-31T10:26:42;99758.06;;;17.75
76583;BMP280;65462;52.148;7.940;2023-07-31T10:29:10;99753.78;;;17.81
76583;BMP280;65462;52.148;7.940;2023-07-31T10:31:36;99759.16;;;17.84
76583;BMP280;65462;52.148;7.940;2023-07-31T10:34:01;99760.25;;;17.87
76583;BMP280;65462;52.148;7.940;2023-07-31T10:36:28;99750.31;;;17.87
76583;BMP280;65462;52.148;7.940;2023-07-31T10:38:54;99753.78;;;17.88
76583;BMP280;65462;52.148;7.940;2023-07-31T10:41:20;99759.50;;;17.86
76583;BMP280;65462;52.148;7.940;2023-07-31T10:43:54;99757.97;;;17.89
76583;BMP280;65462;52.148;7.940;2023-07-31T10:46:19;99767.50;;;17.86
76583;BMP280;65462;52.148;7.940;2023-07-31T10:48:44;99760.66;;;17.85
76583;BMP280;65462;52.148;7.940;2023-07-31T10:51:11;99757.59;;;17.83
76583;BMP280;65462;52.148;7.940;2023-07-31T10:53:41;99766.41;;;17.80
76583;BMP280;65462;52.148;7.940;2023-07-31T10:56:09;99754.16;;;17.86
76583;BMP280;65462;52.148;7.940;2023-07-31T10:58:37;99761.03;;;17.84
76583;BMP280;65462;52.148;7.940;2023-07-31T11:01:03;99750.31;;;17.87
76583;BMP280;65462;52.148;7.940;2023-07-31T11:06:06;99749.53;;;17.90
76583;BMP280;65462;52.148;7.940;2023-07-31T11:08:32;99741.13;;;17.95
76583;BMP280;65462;52.148;7.940;2023-07-31T11:13:26;99749.09;;;17.99
76583;BMP280;65462;52.148;7.940;2023-07-31T11:15:51;99753.72;;;17.98
76583;BMP280;65462;52.148;7.940;2023-07-31T11:18:16;99739.16;;;18.03
76583;BMP280;65462;52.148;7.940;2023-07-31T11:20:41;99749.47;;;18.01
76583;BMP280;65462;52.148;7.940;2023-07-31T11:23:08;99734.94;;;18.05
76583;BMP280;65462;52.148;7.940;2023-07-31T11:25:34;99745.63;;;18.05
76583;BMP280;65462;52.148;7.940;2023-07-31T11:28:03;99744.84;;;18.08
76583;BMP280;65462;52.148;7.940;2023-07-31T11:30:28;99743.28;;;18.11
76583;BMP280;65462;52.148;7.940;2023-07-31T11:32:55;99754.00;;;18.11
76583;BMP280;65462;52.148;7.940;2023-07-31T11:35:20;99737.16;;;18.14
76583;BMP280;65462;52.148;7.940;2023-07-31T11:37:45;99741.00;;;18.13
76583;BMP280;65462;52.148;7.940;2023-07-31T11:40:10;99741.75;;;18.10
76583;BMP280;65462;52.148;7.940;2023-07-31T11:42:36;99739.06;;;18.13
76583;BMP280;65462;52.148;7.940;2023-07-31T11:45:02;99738.31;;;18.13
76583;BMP280;65462;52.148;7.940;2023-07-31T11:47:27;99737.47;;;18.19
76583;BMP280;65462;52.148;7.940;2023-07-31T11:49:53;99735.94;;;18.18
76583;BMP280;65462;52.148;7.940;2023-07-31T11:52:18;99739.78;;;18.21
76583;BMP280;65462;52.148;7.940;2023-07-31T11:54:45;99737.13;;;18.21
76583;BMP280;65462;52.148;7.940;2023-07-31T11:57:10;99735.56;;;18.20
76583;BMP280;65462;52.148;7.940;2023-07-31T11:59:37;99724.88;;;18.20
76583;BMP280;65462;52.148;7.940;2023-07-31T12:02:02;99732.53;;;18.21
76583;BMP280;65462;52.148;7.940;2023-07-31T12:04:28;99729.09;;;18.21
76583;BMP280;65462;52.148;7.940;2023-07-31T12:06:53;99731.72;;;18.24
76583;BMP280;65462;52.148;7.940;2023-07-31T12:09:18;99727.13;;;18.25
76583;BMP280;65462;52.148;7.940;2023-07-31T12:11:44;99723.28;;;18.29
76583;BMP280;65462;52.148;7.940;2023-07-31T12:14:23;99723.59;;;18.35
76583;BMP280;65462;52.148;7.940;2023-07-31T12:16:53;99722.78;;;18.38
76583;BMP280;65462;52.148;7.940;2023-07-31T12:19:18;99725.44;;;18.41
76583;BMP280;65462;52.148;7.940;2023-07-31T12:21:44;99730.78;;;18.45
76583;BMP280;65462;52.148;7.940;2023-07-31T12:24:09;99730.38;;;18.47
76583;BMP280;65462;52.148;7.940;2023-07-31T12:26:34;99727.75;;;18.43
76583;BMP280;65462;52.148;7.940;2023-07-31T12:29:00;99729.25;;;18.44
76583;BMP280;65462;52.148;7.940;2023-07-31T12:31:25;99719.28;;;18.48
76583;BMP280;65462;52.148;7.940;2023-07-31T12:33:52;99722.34;;;18.50
76583;BMP280;65462;52.148;7.940;2023-07-31T12:36:18;99731.16;;;18.47
76583;BMP280;65462;52.148;7.940;2023-07-31T12:38:45;99720.81;;;18.46
76583;BMP280;65462;52.148;7.940;2023-07-31T12:41:10;99723.13;;;18.47
76583;BMP280;65462;52.148;7.940;2023-07-31T12:43:36;99717.34;;;18.49
76583;BMP280;65462;52.148;7.940;2023-07-31T12:46:02;99726.88;;;18.53
76583;BMP280;65462;52.148;7.940;2023-07-31T12:48:27;99729.22;;;18.48
76583;BMP280;65462;52.148;7.940;2023-07-31T12:50:52;99717.41;;;18.45
76583;BMP280;65462;52.148;7.940;2023-07-31T12:53:17;99722.34;;;18.47
76583;BMP280;65462;52.148;7.940;2023-07-31T12:55:43;99707.84;;;18.44
76583;BMP280;65462;52.148;7.940;2023-07-31T12:58:08;99722.34;;;18.50
76583;BMP280;65462;52.148;7.940;2023-07-31T13:00:33;99712.78;;;18.46
76583;BMP280;65462;52.148;7.940;2023-07-31T13:02:59;99711.69;;;18.43
76583;BMP280;65462;52.148;7.940;2023-07-31T13:05:24;99710.50;;;18.44
76583;BMP280;65462;52.148;7.940;2023-07-31T13:07:49;99712.00;;;18.49
76583;BMP280;65462;52.148;7.940;2023-07-31T13:10:14;99707.38;;;18.53
76583;BMP280;65462;52.148;7.940;2023-07-31T13:12:40;99697.06;;;18.51
76583;BMP280;65462;52.148;7.940;2023-07-31T13:15:05;99699.69;;;18.58
76583;BMP280;65462;52.148;7.940;2023-07-31T13:17:31;99691.97;;;18.60
76583;BMP280;65462;52.148;7.940;2023-07-31T13:19:56;99693.91;;;18.60
76583;BMP280;65462;52.148;7.940;2023-07-31T13:22:21;99693.06;;;18.70
76583;BMP280;65462;52.148;7.940;2023-07-31T13:24:46;99693.41;;;18.72
76583;BMP280;65462;52.148;7.940;2023-07-31T13:27:12;99691.50;;;18.72
76583;BMP280;65462;52.148;7.940;2023-07-31T13:29:37;99676.59;;;18.71
76583;BMP280;65462;52.148;7.940;2023-07-31T13:32:03;99681.91;;;18.75
76583;BMP280;65462;52.148;7.940;2023-07-31T13:34:28;99672.34;;;18.74
76583;BMP280;65462;52.148;7.940;2023-07-31T13:36:54;99677.31;;;18.75
76583;BMP280;65462;52.148;7.940;2023-07-31T13:39:19;99679.53;;;18.80
76583;BMP280;65462;52.148;7.940;2023-07-31T13:41:44;99680.34;;;18.77
76583;BMP280;65462;52.148;7.940;2023-07-31T13:44:09;99681.06;;;18.81
76583;BMP280;65462;52.148;7.940;2023-07-31T13:46:34;99676.91;;;18.77
76583;BMP280;65462;52.148;7.940;2023-07-31T13:49:00;99663.97;;;18.72
76583;BMP280;65462;52.148;7.940;2023-07-31T13:51:26;99661.25;;;18.75
76583;BMP280;65462;52.148;7.940;2023-07-31T13:53:52;99665.38;;;18.80
76583;BMP280;65462;52.148;7.940;2023-07-31T13:56:18;99665.06;;;18.74
76583;BMP280;65462;52.148;7.940;2023-07-31T13:58:43;99673.53;;;18.73
76583;BMP280;65462;52.148;7.940;2023-07-31T14:01:08;99667.78;;;18.71
76583;BMP280;65462;52.148;7.940;2023-07-31T14:03:33;99668.59;;;18.68
76583;BMP280;65462;52.148;7.940;2023-07-31T14:05:59;99671.25;;;18.71
76583;BMP280;65462;52.148;7.940;2023-07-31T14:08:24;99669.28;;;18.75
76583;BMP280;65462;52.148;7.940;2023-07-31T14:10:49;99666.16;;;18.80
76583;BMP280;65462;52.148;7.940;2023-07-31T14:13:14;99690.63;;;18.82